THA932 LIMC-LSZH
Flight info
| Callsign | THA932 |
|---|---|
| Flight time | 0h 28m |
| Altitude | 30000 |
| Route | PEPAG DCT CANNE Z651 KELIP |
| Aircraft | A346/H-SDE2E3FGHIJ3J4J5M1RWXY/LB1D1 |
Departure
| Time | 2026-04-30 18:51 |
|---|---|
| Airport | Milan Malpensa International Airport (LIMC) |
Arrival
| Time | 2026-04-30 19:19 |
|---|---|
| Airport | Zürich Airport (LSZH) |
| Time | Latitude | Longitude | Altitude | Speed | Heading |
|---|---|---|---|---|---|
| 2026-04-30 18:50 | 45.72498 | 8.69743 | 7324 ft | 212 kts | 350° |
| 2026-04-30 18:51 | 45.73940 | 8.69344 | 8231 ft | 210 kts | 350° |
| 2026-04-30 18:51 | 45.75385 | 8.68983 | 9101 ft | 213 kts | 359° |
| 2026-04-30 18:51 | 45.76877 | 8.69371 | 9649 ft | 228 kts | 20° |
| 2026-04-30 18:51 | 45.78426 | 8.70225 | 10203 ft | 248 kts | 22° |
| 2026-04-30 18:52 | 45.80092 | 8.71156 | 10732 ft | 266 kts | 21° |
| 2026-04-30 18:52 | 45.81893 | 8.72095 | 11279 ft | 284 kts | 20° |
| 2026-04-30 18:52 | 45.83800 | 8.73032 | 11825 ft | 303 kts | 19° |
| 2026-04-30 18:52 | 45.85870 | 8.74010 | 12371 ft | 322 kts | 18° |
| 2026-04-30 18:53 | 45.88063 | 8.75025 | 12882 ft | 340 kts | 18° |
| 2026-04-30 18:53 | 45.90386 | 8.76088 | 13382 ft | 359 kts | 18° |
| 2026-04-30 18:53 | 45.92828 | 8.77200 | 13908 ft | 375 kts | 18° |
| 2026-04-30 18:53 | 45.95347 | 8.78346 | 14668 ft | 381 kts | 18° |
| 2026-04-30 18:54 | 45.97856 | 8.79486 | 15529 ft | 384 kts | 18° |
| 2026-04-30 18:54 | 46.00412 | 8.80650 | 16397 ft | 387 kts | 18° |
| 2026-04-30 18:54 | 46.02992 | 8.81825 | 17357 ft | 390 kts | 18° |
| 2026-04-30 18:54 | 46.05599 | 8.83010 | 18206 ft | 395 kts | 18° |
| 2026-04-30 18:55 | 46.08238 | 8.84217 | 18973 ft | 399 kts | 18° |
| 2026-04-30 18:55 | 46.13593 | 8.86616 | 20444 ft | 406 kts | 15° |
| 2026-04-30 18:55 | 46.16349 | 8.87378 | 21150 ft | 411 kts | 8° |
| 2026-04-30 18:56 | 46.22125 | 8.87331 | 22704 ft | 420 kts | 356° |
| 2026-04-30 18:56 | 46.25053 | 8.86903 | 23369 ft | 425 kts | 356° |
| 2026-04-30 18:56 | 46.28017 | 8.86444 | 23954 ft | 430 kts | 356° |
| 2026-04-30 18:57 | 46.34019 | 8.85520 | 25165 ft | 435 kts | 356° |
| 2026-04-30 18:57 | 46.36999 | 8.85068 | 25760 ft | 438 kts | 356° |
| 2026-04-30 18:57 | 46.40046 | 8.84611 | 26228 ft | 443 kts | 356° |
| 2026-04-30 18:58 | 46.46262 | 8.83673 | 27209 ft | 452 kts | 356° |
| 2026-04-30 18:58 | 46.49405 | 8.83198 | 27760 ft | 455 kts | 356° |
| 2026-04-30 18:58 | 46.51489 | 8.82883 | 28103 ft | 458 kts | 356° |
| 2026-04-30 18:59 | 46.57834 | 8.81919 | 28239 ft | 451 kts | 356° |
| 2026-04-30 19:00 | 46.67219 | 8.80488 | 26011 ft | 448 kts | 356° |
| 2026-04-30 19:00 | 46.70300 | 8.80018 | 25529 ft | 441 kts | 356° |
| 2026-04-30 19:00 | 46.76364 | 8.79101 | 24331 ft | 434 kts | 356° |
| 2026-04-30 19:01 | 46.82294 | 8.78200 | 23130 ft | 427 kts | 356° |
| 2026-04-30 19:01 | 46.85244 | 8.77751 | 22456 ft | 425 kts | 356° |
| 2026-04-30 19:02 | 46.91072 | 8.76858 | 21421 ft | 415 kts | 356° |
| 2026-04-30 19:02 | 46.96750 | 8.75987 | 20479 ft | 404 kts | 356° |
| 2026-04-30 19:03 | 47.02248 | 8.75114 | 19601 ft | 397 kts | 356° |
| 2026-04-30 19:03 | 47.07695 | 8.74150 | 18697 ft | 391 kts | 353° |
| 2026-04-30 19:04 | 47.13033 | 8.72775 | 17749 ft | 386 kts | 352° |
| 2026-04-30 19:04 | 47.18281 | 8.71385 | 16857 ft | 380 kts | 352° |
| 2026-04-30 19:05 | 47.23455 | 8.70018 | 15967 ft | 375 kts | 351° |
| 2026-04-30 19:05 | 47.28462 | 8.67950 | 15049 ft | 378 kts | 341° |
| 2026-04-30 19:06 | 47.33277 | 8.64796 | 14134 ft | 376 kts | 337° |
| 2026-04-30 19:06 | 47.35649 | 8.63156 | 13636 ft | 375 kts | 336° |
| 2026-04-30 19:06 | 47.40197 | 8.59469 | 12726 ft | 370 kts | 331° |
| 2026-04-30 19:07 | 47.44406 | 8.55271 | 11821 ft | 369 kts | 315° |
| 2026-04-30 19:07 | 47.45812 | 8.52089 | 11371 ft | 370 kts | 293° |
| 2026-04-30 19:08 | 47.46737 | 8.44763 | 10953 ft | 350 kts | 278° |
| 2026-04-30 19:08 | 47.47351 | 8.37849 | 10666 ft | 326 kts | 278° |
| 2026-04-30 19:08 | 47.47653 | 8.34589 | 10555 ft | 315 kts | 278° |
| 2026-04-30 19:09 | 47.48232 | 8.28453 | 10392 ft | 290 kts | 278° |
| 2026-04-30 19:09 | 47.48508 | 8.25536 | 10326 ft | 283 kts | 278° |
| 2026-04-30 19:09 | 47.48781 | 8.22659 | 10212 ft | 281 kts | 278° |
| 2026-04-30 19:10 | 47.49324 | 8.16912 | 9546 ft | 281 kts | 278° |
| 2026-04-30 19:10 | 47.49861 | 8.11196 | 8949 ft | 278 kts | 278° |
| 2026-04-30 19:11 | 47.50217 | 8.08386 | 8613 ft | 277 kts | 292° |
| 2026-04-30 19:11 | 47.52970 | 8.04819 | 7984 ft | 269 kts | 351° |
| 2026-04-30 19:11 | 47.54805 | 8.04858 | 7664 ft | 263 kts | 19° |
| 2026-04-30 19:12 | 47.56379 | 8.06070 | 7379 ft | 258 kts | 43° |
| 2026-04-30 19:12 | 47.57434 | 8.08182 | 7067 ft | 256 kts | 69° |
| 2026-04-30 19:12 | 47.57761 | 8.10748 | 6774 ft | 254 kts | 94° |
| 2026-04-30 19:13 | 47.56318 | 8.15447 | 6157 ft | 254 kts | 121° |
| 2026-04-30 19:13 | 47.55643 | 8.20344 | 5558 ft | 250 kts | 76° |
| 2026-04-30 19:13 | 47.56270 | 8.22736 | 5307 ft | 247 kts | 69° |
| 2026-04-30 19:14 | 47.56942 | 8.25072 | 5064 ft | 244 kts | 69° |
| 2026-04-30 19:14 | 47.57612 | 8.27382 | 4809 ft | 243 kts | 68° |
| 2026-04-30 19:14 | 47.58289 | 8.29664 | 4533 ft | 241 kts | 68° |
| 2026-04-30 19:14 | 47.58964 | 8.31922 | 4302 ft | 237 kts | 68° |
| 2026-04-30 19:15 | 47.59559 | 8.34139 | 4273 ft | 224 kts | 80° |
| 2026-04-30 19:15 | 47.58826 | 8.38265 | 4248 ft | 206 kts | 117° |
| 2026-04-30 19:15 | 47.57989 | 8.39978 | 4137 ft | 202 kts | 126° |
| 2026-04-30 19:16 | 47.57050 | 8.41465 | 3886 ft | 192 kts | 129° |
| 2026-04-30 19:16 | 47.56108 | 8.42812 | 3608 ft | 184 kts | 130° |
| 2026-04-30 19:16 | 47.54307 | 8.45265 | 3075 ft | 168 kts | 130° |
| 2026-04-30 19:17 | 47.53450 | 8.46435 | 2845 ft | 164 kts | 131° |
| 2026-04-30 19:17 | 47.51841 | 8.48607 | 2456 ft | 154 kts | 130° |
| 2026-04-30 19:17 | 47.51067 | 8.49695 | 2206 ft | 152 kts | 130° |
| 2026-04-30 19:18 | 47.49775 | 8.51487 | 1808 ft | 152 kts | 136° |
| 2026-04-30 19:18 | 47.48727 | 8.52896 | 1592 ft | 151 kts | 134° |
| 2026-04-30 19:18 | 47.47949 | 8.53952 | 1421 ft | 150 kts | 133° |
| 2026-04-30 19:19 | 47.47333 | 8.54810 | 1407 ft | 90 kts | 137° |
| 2026-04-30 19:19 | 47.46917 | 8.55380 | 1404 ft | 77 kts | 137° |
| 2026-04-30 19:19 | 47.46270 | 8.56260 | 1419 ft | 43 kts | 137° |
| 2026-04-30 19:20 | 47.46152 | 8.56366 | 1422 ft | 8 kts | 189° |
| 2026-04-30 19:20 | 47.46089 | 8.56345 | 1424 ft | 10 kts | 192° |
| 2026-04-30 19:20 | 47.46004 | 8.56292 | 1423 ft | 6 kts | 250° |
| 2026-04-30 19:21 | 47.46004 | 8.56206 | 1421 ft | 11 kts | 273° |
| 2026-04-30 19:21 | 47.46004 | 8.55991 | 1422 ft | 8 kts | 218° |
| 2026-04-30 19:22 | 47.45939 | 8.55873 | 1419 ft | 8 kts | 274° |
| 2026-04-30 19:22 | 47.45940 | 8.55862 | 1416 ft | 0 kts | 275° |
| 2026-04-30 19:23 | 47.45941 | 8.55838 | 1415 ft | 4 kts | 275° |
| 2026-04-30 19:24 | 47.45955 | 8.55632 | 1410 ft | 15 kts | 276° |
| 2026-04-30 19:24 | 47.45966 | 8.55489 | 1414 ft | 12 kts | 276° |
| 2026-04-30 19:24 | 47.45973 | 8.55396 | 1408 ft | 0 kts | 276° |
| 2026-04-30 19:25 | 47.46012 | 8.55340 | 1408 ft | 1 kts | 353° |
| 2026-04-30 19:26 | 47.46035 | 8.55334 | 1412 ft | 0 kts | 1° |
| 2026-04-30 19:26 | 47.46047 | 8.55336 | 1413 ft | 2 kts | 5° |
| 2026-04-30 19:26 | 47.46052 | 8.55336 | 1412 ft | 0 kts | 5° |
| 2026-04-30 19:27 | 47.46055 | 8.55337 | 1412 ft | 0 kts | 5° |